Time;durP1;ratioP1;P1;durP2;ratioP2;P2;SDS_P1;SDS_P2;PMS_P1;PMS_P2;Temp;Humidity;BMP_temperature;BMP_pressure;BME280_temperature;BME280_humidity;BME280_pressure;Samples;Min_cycle;Max_cycle;Signal;HPM_P1;HPM_P2
2022/06/17 00:00:56;;;;;;;11.88;9.52;;;;;;;24.26;47.51;95221.69;4999402;28;20457;-51
2022/06/17 00:03:22;;;;;;;10.48;8.18;;;;;;;24.26;47.13;95226.41;4997335;28;20030;-53
2022/06/17 00:05:48;;;;;;;10.57;8.50;;;;;;;24.22;47.29;95213.03;4998615;28;20165;-50
2022/06/17 00:08:19;;;;;;;10.93;9.25;;;;;;;24.25;47.23;95224.94;5002284;28;21501;-52
2022/06/17 00:10:44;;;;;;;9.07;7.75;;;;;;;24.17;47.19;95219.31;4985292;28;20409;-53
2022/06/17 00:13:14;;;;;;;9.15;7.50;;;;;;;24.21;46.81;95213.56;4981704;28;20114;-51
2022/06/17 00:15:40;;;;;;;;;;;;;;;24.12;47.72;95205.69;5000566;28;20049;-51
2022/06/17 00:18:05;;;;;;;10.07;8.07;;;;;;;24.15;47.64;95210.88;4998144;28;19918;-50
2022/06/17 00:20:33;;;;;;;10.65;8.63;;;;;;;24.13;47.77;95207.19;5001164;28;20116;-51
2022/06/17 00:22:58;;;;;;;9.88;7.90;;;;;;;24.05;47.97;95223.38;4999168;28;20030;-51
2022/06/17 00:25:29;;;;;;;11.05;8.68;;;;;;;24.11;47.46;95224.06;4998085;28;20900;-51
2022/06/17 00:27:56;;;;;;;9.73;7.72;;;;;;;24.10;47.98;95227.31;4999177;28;20026;-51
2022/06/17 00:30:29;;;;;;;10.35;8.00;;;;;;;24.06;47.85;95230.28;5000696;28;20034;-52
2022/06/17 00:32:56;;;;;;;7.65;6.82;;;;;;;24.03;47.60;95219.66;4989038;28;20053;-53
2022/06/17 00:35:22;;;;;;;8.40;7.28;;;;;;;24.01;47.39;95222.91;5000264;28;20493;-51
2022/06/17 00:37:48;;;;;;;9.73;6.97;;;;;;;23.95;48.15;95224.94;4998515;28;20030;-58
2022/06/17 00:40:21;;;;;;;8.82;6.70;;;;;;;24.00;47.83;95226.84;5000555;28;20033;-52
2022/06/17 00:42:47;;;;;;;9.00;6.60;;;;;;;23.94;47.93;95217.97;4985569;28;20045;-52
2022/06/17 00:45:21;;;;;;;8.20;6.25;;;;;;;23.92;47.92;95220.47;5003962;28;20121;-51
2022/06/17 00:47:49;;;;;;;7.72;5.82;;;;;;;23.93;47.55;95216.53;4984265;28;20049;-50
2022/06/17 00:50:37;;;;;;;6.95;6.15;;;;;;;23.92;47.64;95215.03;4986298;28;20042;-52
2022/06/17 00:53:23;;;;;;;8.15;6.05;;;;;;;23.87;47.74;95218.53;5014791;28;20114;-51
2022/06/17 00:55:54;;;;;;;8.15;6.50;;;;;;;23.86;47.90;95211.59;5001439;28;20034;-52
2022/06/17 00:58:22;;;;;;;7.38;6.25;;;;;;;23.86;48.42;95210.13;5002222;28;20030;-51
2022/06/17 01:00:52;;;;;;;7.95;5.50;;;;;;;23.83;48.03;95211.16;4987061;28;20026;-53
2022/06/17 01:03:30;;;;;;;6.35;5.55;;;;;;;23.74;48.44;95212.19;5000330;28;20132;-51
2022/06/17 01:06:02;;;;;;;6.38;5.28;;;;;;;23.76;48.46;95217.16;5003721;28;20026;-51
2022/06/17 01:11:24;;;;;;;9.55;5.30;;;;;;;23.79;47.93;95205.22;4988011;28;20498;-50
2022/06/17 01:13:49;;;;;;;5.65;5.00;;;;;;;23.73;48.41;95201.78;4984808;28;20061;-51
2022/06/17 01:16:16;;;;;;;7.80;5.20;;;;;;;23.70;48.07;95208.25;4984330;28;20786;-51
2022/06/17 01:18:42;;;;;;;5.78;5.18;;;;;;;23.68;48.57;95202.59;4972143;28;20056;-50
2022/06/17 01:21:20;;;;;;;8.23;5.18;;;;;;;23.68;48.20;95199.84;4992769;28;20047;-56
2022/06/17 01:23:48;;;;;;;5.75;4.60;;;;;;;23.63;48.20;95201.34;4969105;28;20037;-53
2022/06/17 01:26:14;;;;;;;8.07;4.90;;;;;;;23.66;48.01;95196.88;4985987;28;20029;-53
2022/06/17 01:28:40;;;;;;;6.07;4.68;;;;;;;23.66;48.47;95194.91;4984099;28;20040;-52
2022/06/17 01:31:06;;;;;;;7.28;4.97;;;;;;;23.66;47.87;95196.88;5002545;28;20083;-55
2022/06/17 01:33:33;;;;;;;6.78;6.10;;;;;;;23.60;48.14;95187.97;4984376;28;20062;-57
2022/06/17 01:36:01;;;;;;;8.10;6.10;;;;;;;23.54;48.40;95190.00;4990675;28;20120;-52
2022/06/17 01:38:28;;;;;;;7.53;6.57;;;;;;;23.42;48.73;95185.84;4962464;28;20109;-53
2022/06/17 01:40:54;;;;;;;9.38;6.60;;;;;;;23.46;48.48;95183.59;4969249;28;20037;-53
2022/06/17 01:43:19;;;;;;;8.02;7.05;;;;;;;23.46;48.27;95178.16;4970690;28;20069;-54
2022/06/17 01:45:53;;;;;;;8.38;7.05;;;;;;;23.47;48.14;95176.94;4984029;28;20029;-56
2022/06/17 01:48:18;;;;;;;8.73;7.57;;;;;;;23.47;48.41;95179.66;4983962;28;20069;-52
2022/06/17 01:50:44;;;;;;;9.57;7.13;;;;;;;23.46;48.24;95189.06;4968510;28;20030;-53
2022/06/17 01:53:12;;;;;;;9.65;7.18;;;;;;;23.43;48.39;95184.63;4983887;28;20124;-53
2022/06/17 01:55:47;;;;;;;9.27;7.85;;;;;;;23.41;48.66;95181.66;4983470;28;20026;-53
2022/06/17 01:58:29;;;;;;;8.57;6.97;;;;;;;23.39;48.92;95178.69;4968691;28;20032;-55
2022/06/17 02:00:54;;;;;;;11.95;7.65;;;;;;;23.40;48.48;95180.19;5001660;28;20063;-53
2022/06/17 02:03:32;;;;;;;9.20;6.97;;;;;;;23.38;48.60;95182.69;4984012;28;20049;-52
2022/06/17 02:06:23;;;;;;;7.85;6.70;;;;;;;23.38;48.49;95182.69;4987110;28;20168;-51
2022/06/17 02:08:48;;;;;;;8.45;7.53;;;;;;;23.36;48.52;95196.06;4983198;28;20037;-54
2022/06/17 02:11:14;;;;;;;10.65;7.35;;;;;;;23.32;48.97;95201.03;4964942;28;20022;-52
2022/06/17 02:13:39;;;;;;;10.82;7.95;;;;;;;23.32;49.22;95195.59;4982479;28;20478;-52
2022/06/17 02:16:05;;;;;;;11.30;8.00;;;;;;;23.33;49.02;95207.97;4984740;28;20029;-54
2022/06/17 02:18:30;;;;;;;9.27;7.68;;;;;;;23.29;49.19;95207.50;4969523;28;20068;-52
2022/06/17 02:20:57;;;;;;;9.55;8.07;;;;;;;23.25;49.45;95201.56;5012953;28;20026;-52
2022/06/17 02:23:23;;;;;;;11.27;8.68;;;;;;;23.25;49.47;95207.03;4986754;28;20465;-56
2022/06/17 02:25:49;;;;;;;11.18;8.82;;;;;;;23.17;49.32;95208.81;4968216;28;20029;-56
2022/06/17 02:28:16;;;;;;;11.63;9.23;;;;;;;23.22;49.44;95213.47;4965388;28;20116;-50
2022/06/17 02:30:42;;;;;;;12.88;9.23;;;;;;;23.18;49.66;95214.97;4986531;28;20022;-52
2022/06/17 02:33:08;;;;;;;10.20;9.13;;;;;;;23.19;49.43;95206.31;4965176;28;20084;-53
2022/06/17 02:35:46;;;;;;;10.45;8.95;;;;;;;23.12;49.28;95204.13;4964405;28;20034;-52
2022/06/17 02:38:13;;;;;;;13.75;9.60;;;;;;;23.14;49.38;95196.19;4985317;28;20034;-54
2022/06/17 02:40:40;;;;;;;11.68;9.32;;;;;;;23.18;48.88;95196.66;4984589;28;20511;-51
2022/06/17 02:43:11;;;;;;;11.50;8.93;;;;;;;23.18;49.01;95193.91;4967726;28;20061;-54
2022/06/17 02:45:40;;;;;;;11.85;9.10;;;;;;;23.16;49.00;95199.13;4999345;28;20120;-55
2022/06/17 02:48:27;;;;;;;11.88;9.57;;;;;;;23.11;49.72;95202.63;4982862;28;20079;-55
2022/06/17 02:50:54;;;;;;;10.70;9.07;;;;;;;23.06;49.14;95203.41;5002031;28;20145;-57
2022/06/17 02:53:29;;;;;;;12.13;9.25;;;;;;;23.05;49.33;95199.19;5000919;28;20030;-55
2022/06/17 02:55:54;;;;;;;9.95;8.90;;;;;;;23.05;49.28;95204.66;4982194;28;20026;-54
2022/06/17 02:58:41;;;;;;;13.52;9.32;;;;;;;23.06;49.12;95206.13;5007763;28;20034;-55
2022/06/17 03:01:17;;;;;;;11.55;9.02;;;;;;;23.01;49.53;95204.16;4978978;28;20075;-53
2022/06/17 03:03:43;;;;;;;12.18;9.35;;;;;;;23.01;49.43;95204.16;5001495;28;20057;-53
2022/06/17 03:06:14;;;;;;;11.43;9.50;;;;;;;23.00;49.33;95196.50;4966189;28;20180;-54
2022/06/17 03:08:40;;;;;;;11.27;9.65;;;;;;;22.97;49.50;95202.94;4967081;28;20057;-52
2022/06/17 03:11:06;;;;;;;12.63;10.02;;;;;;;22.97;49.61;95198.25;4984227;28;20026;-53
2022/06/17 03:13:57;;;;;;;10.10;8.88;;;;;;;23.02;49.32;95200.19;4986600;28;20033;-51
2022/06/17 03:16:23;;;;;;;10.43;8.82;;;;;;;23.02;49.73;95200.19;4996096;28;20022;-52
2022/06/17 03:18:49;;;;;;;12.60;9.50;;;;;;;23.03;49.80;95201.69;5000247;28;20057;-52
2022/06/17 03:21:15;;;;;;;13.23;9.45;;;;;;;22.95;50.08;95198.00;5000336;28;20021;-52
2022/06/17 03:23:50;;;;;;;12.63;9.55;;;;;;;22.98;49.48;95198.97;4964830;28;20080;-52
2022/06/17 03:26:18;;;;;;;14.27;9.55;;;;;;;23.00;49.70;95210.88;5000026;28;20022;-56
2022/06/17 03:28:53;;;;;;;11.68;9.20;;;;;;;22.98;50.03;95202.44;5001739;28;20018;-53
2022/06/17 03:31:43;;;;;;;10.73;9.60;;;;;;;22.94;49.84;95203.94;4976912;28;20051;-52
2022/06/17 03:34:21;;;;;;;11.60;9.57;;;;;;;22.92;49.97;95207.13;5000304;28;20026;-52
2022/06/17 03:36:50;;;;;;;11.15;9.20;;;;;;;22.91;50.39;95200.22;4980986;28;20028;-53
2022/06/17 03:39:29;;;;;;;12.33;9.67;;;;;;;22.93;50.13;95214.09;4984397;28;20516;-51
2022/06/17 03:42:01;;;;;;;12.07;9.70;;;;;;;22.96;50.11;95213.09;4998161;28;20022;-52
2022/06/17 03:44:33;;;;;;;13.43;10.00;;;;;;;22.99;50.25;95216.81;4997782;28;20110;-56
2022/06/17 03:47:04;;;;;;;12.18;9.32;;;;;;;23.00;50.61;95218.28;4967076;28;20057;-54
2022/06/17 03:49:40;;;;;;;12.13;9.68;;;;;;;23.00;50.20;95224.47;4974931;28;20474;-54
2022/06/17 03:52:16;;;;;;;13.40;9.57;;;;;;;23.00;50.75;95224.47;5001044;28;20061;-53
2022/06/17 03:54:41;;;;;;;12.50;9.23;;;;;;;23.06;50.24;95227.16;4996707;28;20452;-55
2022/06/17 03:57:08;;;;;;;10.85;9.00;;;;;;;23.10;50.59;95228.38;4983436;28;20030;-52
2022/06/17 03:59:34;;;;;;;12.40;9.60;;;;;;;23.09;50.46;95232.38;4981988;28;20104;-52
2022/06/17 04:02:07;;;;;;;11.98;9.35;;;;;;;23.18;50.22;95239.50;4984074;28;20059;-52
2022/06/17 04:04:34;;;;;;;12.52;9.88;;;;;;;23.20;50.53;95237.75;4967134;28;20026;-52
2022/06/17 04:07:00;;;;;;;11.95;9.25;;;;;;;23.31;49.88;95237.72;4978914;28;20033;-53
2022/06/17 04:09:37;;;;;;;12.85;9.65;;;;;;;23.37;49.82;95236.44;5001755;28;20097;-55
2022/06/17 04:12:19;;;;;;;11.80;9.70;;;;;;;23.53;49.59;95232.16;5000750;28;20033;-55
2022/06/17 04:15:05;;;;;;;12.15;9.63;;;;;;;23.61;49.34;95241.25;4997384;28;20719;-53
2022/06/17 04:17:39;;;;;;;12.50;10.05;;;;;;;23.68;49.14;95246.22;5000942;28;20170;-53
2022/06/17 04:20:17;;;;;;;14.60;10.35;;;;;;;23.78;49.53;95236.47;5006957;28;20452;-53
2022/06/17 04:22:44;;;;;;;13.18;9.63;;;;;;;23.88;48.88;95247.31;4998659;28;20038;-53
2022/06/17 04:25:11;;;;;;;14.65;10.05;;;;;;;24.01;48.83;95244.72;4968102;28;20025;-53
2022/06/17 04:30:27;;;;;;;13.50;9.30;;;;;;;24.10;48.52;95247.13;5004533;28;20670;-55
2022/06/17 04:32:54;;;;;;;14.25;10.02;;;;;;;24.22;48.23;95248.53;4972106;28;20026;-52
2022/06/17 04:35:20;;;;;;;13.10;9.82;;;;;;;24.28;47.78;95246.50;4984064;28;20163;-53
2022/06/17 04:37:46;;;;;;;11.70;9.05;;;;;;;24.47;47.72;95241.88;5003302;28;20026;-54
2022/06/17 04:40:40;;;;;;;13.75;9.50;;;;;;;24.53;47.72;95245.31;5005296;28;20033;-55
2022/06/17 04:43:11;;;;;;;15.57;8.82;;;;;;;24.65;47.53;95241.19;5004161;28;20052;-54
2022/06/17 04:45:36;;;;;;;12.32;9.05;;;;;;;24.68;47.21;95240.94;4972923;28;20092;-54
2022/06/17 04:48:02;;;;;;;15.60;9.02;;;;;;;24.82;47.19;95245.97;5003202;28;20026;-51
2022/06/17 04:50:27;;;;;;;13.90;9.25;;;;;;;24.85;46.90;95244.94;5000588;28;20022;-55
2022/06/17 04:52:55;;;;;;;11.77;8.70;;;;;;;24.89;46.72;95245.41;5001977;28;20045;-52
2022/06/17 04:55:28;;;;;;;13.38;9.25;;;;;;;24.98;46.85;95242.31;5003636;28;20534;-51
2022/06/17 04:57:53;;;;;;;14.55;9.00;;;;;;;25.00;46.54;95239.84;4982177;28;20531;-53
2022/06/17 05:00:21;;;;;;;10.43;8.35;;;;;;;25.09;46.60;95242.22;4999308;28;20029;-53
2022/06/17 05:02:47;;;;;;;10.55;8.38;;;;;;;25.18;46.39;95244.59;4998519;28;20496;-52
2022/06/17 05:05:16;;;;;;;12.73;8.60;;;;;;;25.27;46.10;95244.25;5000793;28;20026;-53
2022/06/17 05:07:44;;;;;;;12.45;8.63;;;;;;;25.21;46.15;95238.09;5001541;28;20026;-53
2022/06/17 05:10:16;;;;;;;14.95;8.05;;;;;;;25.28;45.87;95237.53;5001813;28;20018;-52
2022/06/17 05:12:48;;;;;;;11.55;7.65;;;;;;;25.41;45.58;95234.84;4983486;28;20110;-54
2022/06/17 05:15:15;;;;;;;12.75;7.97;;;;;;;25.47;45.32;95238.25;5000985;28;20048;-54
2022/06/17 05:17:41;;;;;;;10.73;7.22;;;;;;;25.60;45.23;95241.06;4982982;28;20062;-53
2022/06/17 05:20:08;;;;;;;10.60;7.20;;;;;;;25.67;45.08;95246.00;5008285;28;20030;-53
2022/06/17 05:22:39;;;;;;;10.07;7.43;;;;;;;25.72;45.26;95242.41;4983476;28;20034;-54
2022/06/17 05:25:06;;;;;;;10.57;7.90;;;;;;;25.76;44.96;95237.41;4967674;28;20580;-52
2022/06/17 05:27:32;;;;;;;9.68;6.72;;;;;;;25.78;44.78;95245.81;4988291;28;20042;-53
2022/06/17 05:29:57;;;;;;;11.18;6.95;;;;;;;25.64;45.35;95233.31;4989756;28;20524;-54
2022/06/17 05:32:23;;;;;;;10.00;6.97;;;;;;;25.87;45.15;95233.25;5001982;28;20550;-52
2022/06/17 05:34:48;;;;;;;10.02;7.35;;;;;;;25.89;44.93;95230.00;5006949;28;20523;-54
2022/06/17 05:37:14;;;;;;;11.27;7.05;;;;;;;25.91;45.34;95233.66;5000502;28;20030;-54
2022/06/17 05:39:40;;;;;;;9.90;6.40;;;;;;;26.03;44.97;95226.75;5001883;28;20489;-54
2022/06/17 05:42:06;;;;;;;11.13;6.25;;;;;;;25.97;45.88;95226.09;4999576;28;20349;-59
2022/06/17 05:44:32;;;;;;;11.70;6.35;;;;;;;26.12;44.40;95223.63;5000092;28;20500;-53
2022/06/17 05:46:57;;;;;;;13.63;6.75;;;;;;;26.16;44.00;95226.81;5000501;28;20460;-52
2022/06/17 05:49:23;;;;;;;10.10;6.20;;;;;;;26.22;44.02;95213.00;5002667;28;20112;-52
2022/06/17 05:51:48;;;;;;;8.40;5.60;;;;;;;26.13;44.25;95216.16;5001148;28;20049;-53
2022/06/17 05:54:14;;;;;;;8.35;5.93;;;;;;;26.07;44.87;95219.00;5003025;28;20752;-56
2022/06/17 05:56:39;;;;;;;11.57;5.72;;;;;;;26.27;43.92;95210.19;5000045;28;20494;-55
2022/06/17 05:59:05;;;;;;;8.18;5.32;;;;;;;26.16;44.61;95215.88;5001328;28;20022;-54
2022/06/17 06:01:30;;;;;;;7.72;5.13;;;;;;;26.44;43.40;95218.88;5000004;28;20033;-53
2022/06/17 06:03:56;;;;;;;9.02;5.32;;;;;;;26.56;43.20;95220.16;4999042;28;20861;-53
2022/06/17 06:06:21;;;;;;;10.02;6.00;;;;;;;26.51;43.33;95218.28;5005489;28;20346;-52
2022/06/17 06:08:47;;;;;;;7.30;5.10;;;;;;;26.39;43.80;95211.50;5003742;28;20042;-55
2022/06/17 06:11:12;;;;;;;7.93;5.30;;;;;;;26.61;43.13;95208.38;4999751;28;20079;-52
2022/06/17 06:13:37;;;;;;;12.50;5.22;;;;;;;26.45;43.24;95203.94;5000543;28;20524;-55
2022/06/17 06:16:03;;;;;;;8.75;4.70;;;;;;;26.47;43.41;95204.13;5003734;28;20520;-53
2022/06/17 06:18:34;;;;;;;7.00;5.20;;;;;;;26.52;43.16;95211.53;4998157;28;20052;-55
2022/06/17 06:21:04;;;;;;;8.10;4.00;;;;;;;26.35;43.67;95208.34;5000005;28;20145;-52
2022/06/17 06:23:29;;;;;;;;;;;;;;;26.36;43.82;95212.56;5003013;28;20108;-56
2022/06/17 06:25:55;;;;;;;7.28;4.45;;;;;;;26.53;43.14;95204.78;5000651;28;20024;-53
2022/06/17 06:28:22;;;;;;;11.77;4.50;;;;;;;26.75;42.57;95209.88;4999801;28;20034;-52
2022/06/17 06:31:04;;;;;;;5.65;3.85;;;;;;;26.61;43.07;95205.66;5001394;28;20069;-54
2022/06/17 06:33:30;;;;;;;8.00;4.78;;;;;;;26.61;43.45;95211.13;5002267;28;20025;-55
2022/06/17 06:35:55;;;;;;;6.28;3.88;;;;;;;26.78;43.19;95199.31;5002579;28;20034;-56
2022/06/17 06:38:21;;;;;;;9.63;4.78;;;;;;;26.76;43.36;95199.09;5000672;28;20481;-54
2022/06/17 06:40:47;;;;;;;6.05;4.18;;;;;;;26.76;43.14;95201.13;5000138;28;20030;-57
2022/06/17 06:43:16;;;;;;;5.63;3.78;;;;;;;26.88;42.59;95197.63;4999150;28;20038;-52
2022/06/17 06:45:42;;;;;;;7.95;4.00;;;;;;;27.00;42.25;95203.69;4998787;28;20033;-52
2022/06/17 06:48:08;;;;;;;6.78;4.85;;;;;;;27.07;41.77;95198.28;5001551;28;20030;-53
2022/06/17 06:50:34;;;;;;;9.80;5.25;;;;;;;27.23;42.04;95199.22;4979945;28;20112;-54
2022/06/17 06:53:00;;;;;;;6.18;4.80;;;;;;;27.33;41.17;95192.75;4998447;28;20491;-54
2022/06/17 06:55:26;;;;;;;14.55;5.18;;;;;;;27.32;41.17;95199.50;5004086;28;20030;-53
2022/06/17 06:57:53;;;;;;;9.27;4.82;;;;;;;27.37;41.10;95198.66;5002916;28;20030;-55
2022/06/17 07:00:24;;;;;;;8.23;5.40;;;;;;;27.45;41.01;95200.22;4998771;28;20022;-54
2022/06/17 07:02:50;;;;;;;7.47;5.43;;;;;;;27.53;41.19;95194.84;4981933;28;20405;-54
2022/06/17 07:05:15;;;;;;;5.65;5.00;;;;;;;27.59;40.54;95192.69;5001640;28;20111;-54
2022/06/17 07:07:41;;;;;;;9.43;4.97;;;;;;;27.54;40.54;95193.56;4999140;28;20040;-53
2022/06/17 07:10:09;;;;;;;9.43;5.00;;;;;;;27.57;40.03;95200.75;4998197;28;20076;-53
2022/06/17 07:12:34;;;;;;;8.90;5.10;;;;;;;27.55;39.94;95192.28;4982446;28;20461;-55
2022/06/17 07:14:59;;;;;;;9.38;4.35;;;;;;;27.31;41.49;95195.31;5002243;28;20038;-54
2022/06/17 07:17:25;;;;;;;9.80;4.30;;;;;;;27.27;41.73;95194.88;4999168;28;20038;-52
2022/06/17 07:19:50;;;;;;;5.95;3.83;;;;;;;27.22;42.13;95193.00;5003710;28;20025;-55
2022/06/17 07:22:16;;;;;;;7.50;4.22;;;;;;;27.30;41.98;95188.31;5009375;28;20065;-50
2022/06/17 07:24:41;;;;;;;7.90;4.30;;;;;;;27.22;42.46;95189.50;4999395;28;20026;-52
2022/06/17 07:27:07;;;;;;;6.28;4.28;;;;;;;27.12;42.35;95183.72;4999396;28;20060;-51
2022/06/17 07:29:32;;;;;;;7.68;4.43;;;;;;;27.06;42.55;95180.34;5000289;28;20033;-52
2022/06/17 07:31:59;;;;;;;8.57;4.75;;;;;;;27.11;42.70;95187.72;4999362;28;20025;-51
2022/06/17 07:34:25;;;;;;;5.72;3.90;;;;;;;27.04;42.87;95176.66;5001043;28;20026;-50
2022/06/17 07:42:19;;;;;;;7.20;4.30;;;;;;;26.97;42.54;95172.56;5001878;28;20514;-54
2022/06/17 07:44:45;;;;;;;7.95;5.03;;;;;;;26.98;42.80;95174.06;5000525;28;20076;-52
2022/06/17 07:47:15;;;;;;;5.40;4.40;;;;;;;26.93;42.61;95172.13;4999897;28;20029;-54
2022/06/17 07:49:40;;;;;;;12.40;4.35;;;;;;;26.84;42.97;95172.53;4983077;28;20010;-54
2022/06/17 07:52:06;;;;;;;6.53;4.03;;;;;;;26.80;43.13;95169.41;5000836;28;20036;-52
2022/06/17 07:54:32;;;;;;;8.80;4.60;;;;;;;26.78;43.51;95171.19;4995772;28;20034;-55
2022/06/17 07:56:57;;;;;;;6.43;4.10;;;;;;;26.75;43.50;95166.03;5005004;28;20785;-55
2022/06/17 07:59:23;;;;;;;6.18;4.40;;;;;;;26.74;43.24;95170.03;5000137;28;20022;-54
2022/06/17 08:01:48;;;;;;;6.22;4.00;;;;;;;26.71;43.79;95165.59;4998658;28;20017;-56
2022/06/17 08:04:13;;;;;;;6.50;4.38;;;;;;;26.63;43.43;95159.28;5002748;28;20504;-53
2022/06/17 08:06:39;;;;;;;8.07;4.35;;;;;;;26.64;43.56;95160.75;5002144;28;20750;-54
2022/06/17 08:09:04;;;;;;;5.63;4.35;;;;;;;26.56;43.87;95159.91;5001549;28;20022;-53
2022/06/17 08:11:30;;;;;;;7.50;4.30;;;;;;;26.51;44.07;95160.75;4998663;28;20915;-55
2022/06/17 08:13:55;;;;;;;7.45;4.47;;;;;;;26.56;43.75;95159.91;5001821;28;20034;-54
2022/06/17 08:16:21;;;;;;;5.80;4.00;;;;;;;26.55;44.23;95163.94;4999439;28;20053;-55
2022/06/17 08:18:46;;;;;;;5.22;4.22;;;;;;;26.54;43.98;95156.97;5003765;28;20036;-52
2022/06/17 08:21:12;;;;;;;8.43;4.20;;;;;;;26.52;44.10;95154.03;5010552;28;20053;-51
2022/06/17 08:23:37;;;;;;;6.93;4.60;;;;;;;26.48;44.23;95153.59;4982157;28;20026;-54
2022/06/17 08:26:03;;;;;;;8.32;5.03;;;;;;;26.43;44.03;95151.69;4997166;28;20021;-53
2022/06/17 08:28:29;;;;;;;8.20;4.13;;;;;;;26.41;44.13;95148.72;5000981;28;20022;-52
2022/06/17 08:30:55;;;;;;;6.45;4.45;;;;;;;26.43;44.45;95141.47;5003326;28;20057;-53
2022/06/17 08:33:27;;;;;;;6.65;4.60;;;;;;;26.45;44.55;95143.69;4999083;28;20018;-53
2022/06/17 08:35:52;;;;;;;7.68;4.50;;;;;;;26.46;44.42;95142.44;4998555;28;20508;-52
2022/06/17 08:38:29;;;;;;;6.88;4.45;;;;;;;26.49;44.27;95133.88;4966408;28;20037;-52
2022/06/17 08:40:55;;;;;;;6.82;4.38;;;;;;;26.44;44.23;95139.47;4999566;28;20508;-52
2022/06/17 08:43:32;;;;;;;6.13;4.25;;;;;;;26.43;44.74;95135.25;5000515;28;20049;-55
2022/06/17 08:46:47;;;;;;;7.10;4.65;;;;;;;26.43;44.39;95138.00;5000366;28;20034;-52
2022/06/17 08:49:42;;;;;;;6.35;4.55;;;;;;;26.42;44.50;95133.78;4943236;28;20076;-52
2022/06/17 08:52:24;;;;;;;5.60;4.18;;;;;;;26.38;44.82;95134.09;4986818;28;20501;-53
2022/06/17 08:55:08;;;;;;;6.93;4.32;;;;;;;26.37;45.10;95131.88;4984332;28;20034;-52
2022/06/17 08:57:54;;;;;;;7.53;4.20;;;;;;;26.35;45.16;95128.91;5014421;28;20045;-56
2022/06/17 09:00:38;;;;;;;5.70;4.10;;;;;;;26.33;45.40;95129.44;4976489;28;20126;-55
2022/06/17 09:03:28;;;;;;;4.72;3.70;;;;;;;26.37;45.25;95123.69;4999577;28;20026;-54
2022/06/17 09:06:07;;;;;;;8.13;4.05;;;;;;;26.33;45.18;95128.72;4989246;28;20144;-53
2022/06/17 09:08:59;;;;;;;6.97;4.18;;;;;;;26.32;45.40;95132.72;4970476;28;20036;-52
2022/06/17 09:11:38;;;;;;;7.55;4.15;;;;;;;26.33;45.62;95131.47;5002668;28;20033;-53
2022/06/17 09:14:30;;;;;;;5.25;3.33;;;;;;;26.30;45.15;95129.78;4973417;28;20034;-53
2022/06/17 09:17:04;;;;;;;6.80;3.78;;;;;;;26.32;45.31;95132.72;5002722;28;20030;-52
2022/06/17 09:19:32;;;;;;;5.90;3.33;;;;;;;26.32;45.62;95124.50;5008497;28;20508;-50
2022/06/17 09:22:15;;;;;;;6.40;3.92;;;;;;;26.27;45.66;95122.56;5014252;28;20425;-51
2022/06/17 09:24:41;;;;;;;5.80;4.00;;;;;;;26.33;45.75;95128.72;4969252;28;20069;-54
2022/06/17 09:27:22;;;;;;;5.32;3.72;;;;;;;26.33;45.37;95125.97;5000891;28;20425;-54
2022/06/17 09:30:20;;;;;;;5.93;3.30;;;;;;;26.33;45.37;95123.25;5000151;28;20394;-51
2022/06/17 09:32:47;;;;;;;4.40;3.15;;;;;;;26.34;45.04;95119.25;4983873;28;20041;-52
2022/06/17 09:35:26;;;;;;;5.55;3.53;;;;;;;26.36;45.47;95122.19;5007823;28;20041;-55
2022/06/17 09:38:16;;;;;;;4.72;3.33;;;;;;;26.37;45.29;95115.47;5001484;28;20033;-52
2022/06/17 09:40:45;;;;;;;4.60;3.33;;;;;;;26.38;45.58;95127.88;5004688;28;20125;-52
2022/06/17 09:43:24;;;;;;;6.17;3.50;;;;;;;26.38;45.31;95122.38;4996558;28;20061;-51
2022/06/17 09:45:57;;;;;;;6.05;3.40;;;;;;;26.38;45.69;95114.19;5015963;28;20301;-51
2022/06/17 09:48:25;;;;;;;4.90;3.58;;;;;;;26.41;45.29;95107.66;4984183;28;20037;-54
2022/06/17 09:50:54;;;;;;;8.02;3.80;;;;;;;26.41;45.52;95115.88;5008439;28;20066;-53
2022/06/17 09:53:25;;;;;;;5.03;3.53;;;;;;;26.40;45.36;95114.41;5001908;28;20080;-54
2022/06/17 09:56:22;;;;;;;5.35;3.60;;;;;;;26.42;45.26;95111.88;4971563;28;20038;-52
2022/06/17 09:59:12;;;;;;;5.85;3.55;;;;;;;26.40;45.49;95114.41;4960493;28;20061;-54
2022/06/17 10:01:40;;;;;;;6.28;3.78;;;;;;;26.41;45.65;95113.13;4985494;28;20038;-55
2022/06/17 10:04:08;;;;;;;4.85;3.72;;;;;;;26.46;45.46;95112.31;5002153;28;20034;-52
2022/06/17 10:06:57;;;;;;;5.03;4.05;;;;;;;26.46;45.09;95112.31;4982561;28;20069;-53
2022/06/17 10:09:26;;;;;;;4.10;3.45;;;;;;;26.45;45.18;95121.78;4993966;28;20059;-52
2022/06/17 10:12:04;;;;;;;5.15;3.80;;;;;;;26.45;45.43;95113.56;5001256;28;20113;-53
2022/06/17 10:14:46;;;;;;;5.05;3.47;;;;;;;26.46;45.32;95106.81;5000767;28;20037;-53
2022/06/17 10:20:08;;;;;;;4.30;3.40;;;;;;;26.47;44.68;95114.50;4997265;28;20044;-53
2022/06/17 10:23:00;;;;;;;5.20;3.83;;;;;;;26.49;44.69;95105.78;4984630;28;20087;-52
2022/06/17 10:25:44;;;;;;;5.45;3.88;;;;;;;26.49;44.89;95105.78;4968515;28;20139;-52
2022/06/17 10:28:15;;;;;;;6.32;3.50;;;;;;;26.48;44.78;95110.50;5007272;28;20034;-51
2022/06/17 10:31:16;;;;;;;5.40;3.55;;;;;;;26.47;44.85;95108.28;5002800;28;20500;-50
2022/06/17 10:33:42;;;;;;;4.88;3.60;;;;;;;26.48;44.70;95098.81;4954962;28;20440;-53
2022/06/17 10:36:07;;;;;;;4.35;3.67;;;;;;;26.50;44.64;95096.28;5002249;28;20457;-51
2022/06/17 10:38:39;;;;;;;4.90;3.67;;;;;;;26.51;44.30;95095.00;4982456;28;20386;-52
2022/06/17 10:41:05;;;;;;;5.82;3.90;;;;;;;26.52;44.45;95099.97;4964371;28;20029;-52
2022/06/17 10:43:36;;;;;;;5.70;3.67;;;;;;;26.50;44.62;95102.50;4984239;28;20050;-52
2022/06/17 10:46:02;;;;;;;4.53;3.58;;;;;;;26.52;44.47;95104.72;4998800;28;20045;-52
2022/06/17 10:48:40;;;;;;;5.32;3.60;;;;;;;26.54;44.49;95091.94;4980972;28;20112;-52
2022/06/17 10:51:06;;;;;;;4.40;3.03;;;;;;;26.58;44.10;95105.34;4985727;28;20040;-51
2022/06/17 10:53:48;;;;;;;4.05;3.30;;;;;;;26.57;44.22;95106.59;4984123;28;20033;-54
2022/06/17 10:56:40;;;;;;;5.75;3.45;;;;;;;26.56;44.26;95096.91;4984644;28;20022;-54
2022/06/17 10:59:09;;;;;;;4.20;3.15;;;;;;;26.60;44.11;95100.06;4984762;28;20026;-52
2022/06/17 11:01:53;;;;;;;5.72;3.40;;;;;;;26.59;44.20;95098.56;5001899;28;20571;-53
2022/06/17 11:04:34;;;;;;;6.05;3.60;;;;;;;26.64;43.78;95105.97;4984913;28;20026;-53
2022/06/17 11:07:05;;;;;;;5.00;3.50;;;;;;;26.65;43.80;95097.22;4999165;28;20080;-53
2022/06/17 11:09:35;;;;;;;4.80;3.30;;;;;;;26.64;43.93;95095.00;4983738;28;20399;-53
2022/06/17 11:12:10;;;;;;;4.18;2.97;;;;;;;26.66;43.76;95092.47;5000239;28;20777;-54
2022/06/17 11:14:44;;;;;;;5.07;3.50;;;;;;;26.67;43.79;95093.97;4983103;28;20018;-52
2022/06/17 11:17:19;;;;;;;4.20;3.13;;;;;;;26.68;43.77;95096.16;5002243;28;20030;-51
2022/06/17 11:19:46;;;;;;;3.95;3.40;;;;;;;26.72;43.51;95095.84;4971731;28;20032;-52
2022/06/17 11:22:31;;;;;;;4.57;3.03;;;;;;;26.72;43.81;95095.84;4983074;28;20088;-53
2022/06/17 11:24:59;;;;;;;3.67;3.28;;;;;;;26.72;43.67;95090.34;5003538;28;20026;-53
2022/06/17 11:27:43;;;;;;;5.60;3.55;;;;;;;26.74;43.88;95087.81;4968390;28;20022;-54
2022/06/17 11:30:25;;;;;;;4.70;3.45;;;;;;;26.73;43.99;95086.34;4999443;28;20026;-53
2022/06/17 11:32:51;;;;;;;4.25;3.33;;;;;;;26.74;44.27;95093.28;4982453;28;20754;-53
2022/06/17 11:35:16;;;;;;;4.30;3.55;;;;;;;26.74;43.84;95087.81;5004509;28;20030;-56
2022/06/17 11:37:43;;;;;;;4.63;3.35;;;;;;;26.71;44.07;95084.16;5004752;28;20148;-54
2022/06/17 11:40:10;;;;;;;6.32;3.97;;;;;;;26.69;44.13;95081.19;5001587;28;20041;-53
2022/06/17 11:42:43;;;;;;;5.63;3.60;;;;;;;26.73;44.05;95081.59;4999332;28;20037;-55
2022/06/17 11:45:13;;;;;;;4.72;3.35;;;;;;;26.72;44.29;95084.88;5001412;28;20038;-55
2022/06/17 11:47:42;;;;;;;5.20;3.63;;;;;;;26.74;44.19;95087.81;4983142;28;20030;-54
2022/06/17 11:50:20;;;;;;;4.30;3.58;;;;;;;26.70;44.12;95081.94;4964212;28;20037;-54
2022/06/17 11:52:45;;;;;;;4.88;3.50;;;;;;;26.71;44.42;95073.19;4978050;28;20120;-52
2022/06/17 11:55:11;;;;;;;5.03;3.80;;;;;;;26.75;44.13;95078.34;4984206;28;20484;-53
2022/06/17 11:57:38;;;;;;;5.25;3.83;;;;;;;26.75;43.85;95062.63;4981736;28;20050;-53
2022/06/17 12:00:48;;;;;;;4.55;3.97;;;;;;;26.75;44.26;95072.84;4984920;28;20010;-50
2022/06/17 12:03:34;;;;;;;4.75;3.90;;;;;;;26.76;44.25;95068.88;4988434;28;20119;-53